sensor_id;sensor_type;location;lat;lon;timestamp;temperature;humidity
678;DHT22;321;48.814;9.132;2022-09-09T00:01:49;17.50;99.90
678;DHT22;321;48.814;9.132;2022-09-09T00:04:36;17.50;99.90
678;DHT22;321;48.814;9.132;2022-09-09T00:07:24;17.60;99.90
678;DHT22;321;48.814;9.132;2022-09-09T00:10:04;17.50;99.90
678;DHT22;321;48.814;9.132;2022-09-09T00:15:19;17.50;99.90
678;DHT22;321;48.814;9.132;2022-09-09T00:18:15;17.50;99.90
678;DHT22;321;48.814;9.132;2022-09-09T00:20:50;17.30;99.90
678;DHT22;321;48.814;9.132;2022-09-09T00:23:25;17.30;99.90
678;DHT22;321;48.814;9.132;2022-09-09T00:28:50;17.50;99.90
678;DHT22;321;48.814;9.132;2022-09-09T00:31:24;17.60;99.90
678;DHT22;321;48.814;9.132;2022-09-09T00:33:51;17.70;99.90
678;DHT22;321;48.814;9.132;2022-09-09T00:36:22;17.60;99.90
678;DHT22;321;48.814;9.132;2022-09-09T00:38:52;17.70;99.90
678;DHT22;321;48.814;9.132;2022-09-09T00:41:35;17.80;99.90
678;DHT22;321;48.814;9.132;2022-09-09T00:44:33;17.80;99.90
678;DHT22;321;48.814;9.132;2022-09-09T00:47:10;17.80;99.90
678;DHT22;321;48.814;9.132;2022-09-09T00:50:03;17.90;99.90
678;DHT22;321;48.814;9.132;2022-09-09T00:55:24;18.00;99.90
678;DHT22;321;48.814;9.132;2022-09-09T00:57:52;18.10;99.90
678;DHT22;321;48.814;9.132;2022-09-09T01:00:27;18.10;99.90
678;DHT22;321;48.814;9.132;2022-09-09T01:05:51;18.10;99.90
678;DHT22;321;48.814;9.132;2022-09-09T01:10:58;18.30;99.90
678;DHT22;321;48.814;9.132;2022-09-09T01:13:29;18.30;99.90
678;DHT22;321;48.814;9.132;2022-09-09T01:16:00;18.40;99.90
678;DHT22;321;48.814;9.132;2022-09-09T01:18:37;18.50;99.90
678;DHT22;321;48.814;9.132;2022-09-09T01:21:15;18.40;99.90
678;DHT22;321;48.814;9.132;2022-09-09T01:26:39;18.40;99.90
678;DHT22;321;48.814;9.132;2022-09-09T01:29:13;18.50;99.90
678;DHT22;321;48.814;9.132;2022-09-09T01:34:19;18.50;99.90
678;DHT22;321;48.814;9.132;2022-09-09T01:37:04;18.50;99.90
678;DHT22;321;48.814;9.132;2022-09-09T01:39:31;18.40;99.90
678;DHT22;321;48.814;9.132;2022-09-09T01:41:58;18.30;99.90
678;DHT22;321;48.814;9.132;2022-09-09T01:44:24;18.40;99.90
678;DHT22;321;48.814;9.132;2022-09-09T01:46:51;18.40;99.90
678;DHT22;321;48.814;9.132;2022-09-09T01:49:17;18.50;99.90
678;DHT22;321;48.814;9.132;2022-09-09T01:51:43;18.60;99.90
678;DHT22;321;48.814;9.132;2022-09-09T01:54:11;18.70;99.90
678;DHT22;321;48.814;9.132;2022-09-09T01:57:01;18.60;99.90
678;DHT22;321;48.814;9.132;2022-09-09T02:00:00;18.60;99.90
678;DHT22;321;48.814;9.132;2022-09-09T02:05:22;18.50;99.90
678;DHT22;321;48.814;9.132;2022-09-09T02:07:57;18.50;99.90
678;DHT22;321;48.814;9.132;2022-09-09T02:13:12;18.40;99.90
678;DHT22;321;48.814;9.132;2022-09-09T02:18:22;18.20;99.90
678;DHT22;321;48.814;9.132;2022-09-09T02:20:50;18.10;99.90
678;DHT22;321;48.814;9.132;2022-09-09T02:23:17;17.80;99.90
678;DHT22;321;48.814;9.132;2022-09-09T02:25:44;17.80;99.90
678;DHT22;321;48.814;9.132;2022-09-09T02:28:12;17.70;99.90
678;DHT22;321;48.814;9.132;2022-09-09T02:30:40;17.70;99.90
678;DHT22;321;48.814;9.132;2022-09-09T02:33:07;17.60;99.90
678;DHT22;321;48.814;9.132;2022-09-09T02:35:36;17.60;99.90
678;DHT22;321;48.814;9.132;2022-09-09T02:38:06;17.50;99.90
678;DHT22;321;48.814;9.132;2022-09-09T02:40:32;17.40;99.90
678;DHT22;321;48.814;9.132;2022-09-09T02:45:29;17.30;99.90
678;DHT22;321;48.814;9.132;2022-09-09T02:48:07;17.30;99.90
678;DHT22;321;48.814;9.132;2022-09-09T02:50:43;17.20;99.90
678;DHT22;321;48.814;9.132;2022-09-09T02:53:17;17.10;99.90
678;DHT22;321;48.814;9.132;2022-09-09T02:56:00;17.10;99.90
678;DHT22;321;48.814;9.132;2022-09-09T02:58:28;17.10;99.90
678;DHT22;321;48.814;9.132;2022-09-09T03:00:55;16.90;99.90
678;DHT22;321;48.814;9.132;2022-09-09T03:03:22;16.90;99.90
678;DHT22;321;48.814;9.132;2022-09-09T03:05:49;16.80;99.90
678;DHT22;321;48.814;9.132;2022-09-09T03:08:14;16.80;99.90
678;DHT22;321;48.814;9.132;2022-09-09T03:10:40;16.70;99.90
678;DHT22;321;48.814;9.132;2022-09-09T03:13:06;16.60;99.90
678;DHT22;321;48.814;9.132;2022-09-09T03:15:33;16.70;99.90
678;DHT22;321;48.814;9.132;2022-09-09T03:18:00;16.70;99.90
678;DHT22;321;48.814;9.132;2022-09-09T03:20:27;16.70;99.90
678;DHT22;321;48.814;9.132;2022-09-09T03:22:54;16.60;99.90
678;DHT22;321;48.814;9.132;2022-09-09T03:25:20;16.60;99.90
678;DHT22;321;48.814;9.132;2022-09-09T03:27:45;16.40;99.90
678;DHT22;321;48.814;9.132;2022-09-09T03:30:12;16.50;99.90
678;DHT22;321;48.814;9.132;2022-09-09T03:32:37;16.70;99.90
678;DHT22;321;48.814;9.132;2022-09-09T03:35:03;16.70;99.90
678;DHT22;321;48.814;9.132;2022-09-09T03:37:29;16.70;99.90
678;DHT22;321;48.814;9.132;2022-09-09T03:39:54;16.70;99.90
678;DHT22;321;48.814;9.132;2022-09-09T03:42:20;16.70;99.90
678;DHT22;321;48.814;9.132;2022-09-09T03:44:47;16.60;99.90
678;DHT22;321;48.814;9.132;2022-09-09T03:47:18;16.50;99.90
678;DHT22;321;48.814;9.132;2022-09-09T03:49:44;16.50;99.90
678;DHT22;321;48.814;9.132;2022-09-09T03:52:10;16.40;99.90
678;DHT22;321;48.814;9.132;2022-09-09T03:54:36;16.50;99.90
678;DHT22;321;48.814;9.132;2022-09-09T03:57:02;16.50;99.90
678;DHT22;321;48.814;9.132;2022-09-09T03:59:28;16.60;99.90
678;DHT22;321;48.814;9.132;2022-09-09T04:01:54;16.70;99.90
678;DHT22;321;48.814;9.132;2022-09-09T04:04:20;16.80;99.90
678;DHT22;321;48.814;9.132;2022-09-09T04:06:46;16.90;99.90
678;DHT22;321;48.814;9.132;2022-09-09T04:09:14;16.90;99.90
678;DHT22;321;48.814;9.132;2022-09-09T04:11:39;16.90;99.90
678;DHT22;321;48.814;9.132;2022-09-09T04:14:05;17.00;99.90
678;DHT22;321;48.814;9.132;2022-09-09T04:16:34;16.90;99.90
678;DHT22;321;48.814;9.132;2022-09-09T04:19:03;16.90;99.90
678;DHT22;321;48.814;9.132;2022-09-09T04:21:30;17.00;99.90
678;DHT22;321;48.814;9.132;2022-09-09T04:23:55;17.10;99.90
678;DHT22;321;48.814;9.132;2022-09-09T04:26:21;17.10;99.90
678;DHT22;321;48.814;9.132;2022-09-09T04:28:47;17.10;99.90
678;DHT22;321;48.814;9.132;2022-09-09T04:31:20;17.30;99.90
678;DHT22;321;48.814;9.132;2022-09-09T04:33:49;17.40;99.90
678;DHT22;321;48.814;9.132;2022-09-09T04:36:15;17.40;99.90
678;DHT22;321;48.814;9.132;2022-09-09T04:38:40;17.40;99.90
678;DHT22;321;48.814;9.132;2022-09-09T04:41:07;17.40;99.90
678;DHT22;321;48.814;9.132;2022-09-09T04:43:33;17.40;99.90
678;DHT22;321;48.814;9.132;2022-09-09T04:45:59;17.40;99.90
678;DHT22;321;48.814;9.132;2022-09-09T04:48:25;17.50;99.90
678;DHT22;321;48.814;9.132;2022-09-09T04:50:59;17.60;99.90
678;DHT22;321;48.814;9.132;2022-09-09T04:53:25;17.60;99.90
678;DHT22;321;48.814;9.132;2022-09-09T04:55:52;17.60;99.90
678;DHT22;321;48.814;9.132;2022-09-09T04:58:18;17.50;99.90
678;DHT22;321;48.814;9.132;2022-09-09T05:00:44;17.50;99.90
678;DHT22;321;48.814;9.132;2022-09-09T05:03:10;17.50;99.90
678;DHT22;321;48.814;9.132;2022-09-09T05:05:35;17.50;99.90
678;DHT22;321;48.814;9.132;2022-09-09T05:08:05;17.40;99.90
678;DHT22;321;48.814;9.132;2022-09-09T05:10:32;17.50;99.90
678;DHT22;321;48.814;9.132;2022-09-09T05:12:57;17.40;99.90
678;DHT22;321;48.814;9.132;2022-09-09T05:15:23;17.30;99.90
678;DHT22;321;48.814;9.132;2022-09-09T05:17:49;17.50;99.90
678;DHT22;321;48.814;9.132;2022-09-09T05:20:14;17.50;99.90
678;DHT22;321;48.814;9.132;2022-09-09T05:22:40;17.50;99.90
678;DHT22;321;48.814;9.132;2022-09-09T05:25:06;17.70;99.90
678;DHT22;321;48.814;9.132;2022-09-09T05:27:34;17.80;99.90
678;DHT22;321;48.814;9.132;2022-09-09T05:29:59;17.90;99.90
678;DHT22;321;48.814;9.132;2022-09-09T05:32:25;18.00;99.90
678;DHT22;321;48.814;9.132;2022-09-09T05:34:51;18.00;99.90
678;DHT22;321;48.814;9.132;2022-09-09T05:37:17;18.10;99.90
678;DHT22;321;48.814;9.132;2022-09-09T05:39:43;18.20;99.90
678;DHT22;321;48.814;9.132;2022-09-09T05:42:09;18.30;99.90
678;DHT22;321;48.814;9.132;2022-09-09T05:44:35;18.50;99.90
678;DHT22;321;48.814;9.132;2022-09-09T05:47:00;18.70;99.90
678;DHT22;321;48.814;9.132;2022-09-09T05:49:26;18.80;99.90
678;DHT22;321;48.814;9.132;2022-09-09T05:51:52;18.90;99.90
678;DHT22;321;48.814;9.132;2022-09-09T05:54:18;19.00;99.90
678;DHT22;321;48.814;9.132;2022-09-09T05:56:44;19.10;99.90
678;DHT22;321;48.814;9.132;2022-09-09T05:59:10;19.10;99.90
678;DHT22;321;48.814;9.132;2022-09-09T06:01:37;19.30;99.90
678;DHT22;321;48.814;9.132;2022-09-09T06:04:06;19.30;99.90
678;DHT22;321;48.814;9.132;2022-09-09T06:06:34;19.40;99.90
678;DHT22;321;48.814;9.132;2022-09-09T06:09:05;19.50;99.90
678;DHT22;321;48.814;9.132;2022-09-09T06:11:42;19.50;99.90
678;DHT22;321;48.814;9.132;2022-09-09T06:14:08;19.60;99.90
678;DHT22;321;48.814;9.132;2022-09-09T06:16:34;19.70;99.90
678;DHT22;321;48.814;9.132;2022-09-09T06:19:01;19.80;99.90
678;DHT22;321;48.814;9.132;2022-09-09T06:21:33;19.80;99.90
678;DHT22;321;48.814;9.132;2022-09-09T06:24:01;19.70;99.90
678;DHT22;321;48.814;9.132;2022-09-09T06:26:30;19.80;99.90
678;DHT22;321;48.814;9.132;2022-09-09T06:28:56;19.70;99.90
678;DHT22;321;48.814;9.132;2022-09-09T06:31:25;19.80;99.90
678;DHT22;321;48.814;9.132;2022-09-09T06:33:52;19.70;99.90
678;DHT22;321;48.814;9.132;2022-09-09T06:36:38;19.60;99.90
678;DHT22;321;48.814;9.132;2022-09-09T06:39:04;19.40;99.90
678;DHT22;321;48.814;9.132;2022-09-09T06:41:31;19.40;99.90
678;DHT22;321;48.814;9.132;2022-09-09T06:43:58;19.40;99.90
678;DHT22;321;48.814;9.132;2022-09-09T06:46:28;19.40;99.90
678;DHT22;321;48.814;9.132;2022-09-09T06:48:55;19.50;99.90
678;DHT22;321;48.814;9.132;2022-09-09T06:51:31;19.70;99.90
678;DHT22;321;48.814;9.132;2022-09-09T06:54:00;19.80;99.90
678;DHT22;321;48.814;9.132;2022-09-09T06:56:38;19.80;99.90
678;DHT22;321;48.814;9.132;2022-09-09T06:59:06;19.90;99.90
678;DHT22;321;48.814;9.132;2022-09-09T07:01:35;20.00;99.90
678;DHT22;321;48.814;9.132;2022-09-09T07:04:03;20.20;99.90
678;DHT22;321;48.814;9.132;2022-09-09T07:06:34;20.20;99.90
678;DHT22;321;48.814;9.132;2022-09-09T07:09:02;20.30;99.90
678;DHT22;321;48.814;9.132;2022-09-09T07:11:32;20.50;99.90
678;DHT22;321;48.814;9.132;2022-09-09T07:13:59;20.50;99.90
678;DHT22;321;48.814;9.132;2022-09-09T07:16:25;20.80;99.90
678;DHT22;321;48.814;9.132;2022-09-09T07:18:53;21.10;99.90
678;DHT22;321;48.814;9.132;2022-09-09T07:21:23;21.10;99.90
678;DHT22;321;48.814;9.132;2022-09-09T07:23:50;21.20;99.90
678;DHT22;321;48.814;9.132;2022-09-09T07:26:20;21.50;99.70
678;DHT22;321;48.814;9.132;2022-09-09T07:28:46;21.40;99.30
678;DHT22;321;48.814;9.132;2022-09-09T07:31:18;21.70;99.90
678;DHT22;321;48.814;9.132;2022-09-09T07:33:45;22.10;99.90
678;DHT22;321;48.814;9.132;2022-09-09T07:36:22;21.80;99.90
678;DHT22;321;48.814;9.132;2022-09-09T07:38:53;21.90;99.90
678;DHT22;321;48.814;9.132;2022-09-09T07:41:22;22.40;97.60
678;DHT22;321;48.814;9.132;2022-09-09T07:43:48;22.80;97.20
678;DHT22;321;48.814;9.132;2022-09-09T07:46:16;23.10;99.90
678;DHT22;321;48.814;9.132;2022-09-09T07:48:47;23.10;98.30
678;DHT22;321;48.814;9.132;2022-09-09T07:51:18;23.20;96.40
678;DHT22;321;48.814;9.132;2022-09-09T07:53:45;23.60;97.50
678;DHT22;321;48.814;9.132;2022-09-09T07:56:13;23.70;96.80
678;DHT22;321;48.814;9.132;2022-09-09T07:58:40;25.00;95.00
678;DHT22;321;48.814;9.132;2022-09-09T08:01:17;26.60;91.90
678;DHT22;321;48.814;9.132;2022-09-09T08:03:46;28.50;89.10
678;DHT22;321;48.814;9.132;2022-09-09T08:06:13;30.40;80.20
678;DHT22;321;48.814;9.132;2022-09-09T08:08:39;31.80;75.30
678;DHT22;321;48.814;9.132;2022-09-09T08:11:14;31.90;71.20
678;DHT22;321;48.814;9.132;2022-09-09T08:13:41;31.50;70.30
678;DHT22;321;48.814;9.132;2022-09-09T08:18:35;31.40;69.20
678;DHT22;321;48.814;9.132;2022-09-09T08:23:34;33.50;65.10
678;DHT22;321;48.814;9.132;2022-09-09T08:26:11;34.00;60.00
678;DHT22;321;48.814;9.132;2022-09-09T08:28:38;33.90;58.30
678;DHT22;321;48.814;9.132;2022-09-09T08:33:34;33.40;59.80
678;DHT22;321;48.814;9.132;2022-09-09T08:36:01;33.10;59.10
678;DHT22;321;48.814;9.132;2022-09-09T08:38:27;31.50;61.60
678;DHT22;321;48.814;9.132;2022-09-09T08:40:57;30.80;61.50
678;DHT22;321;48.814;9.132;2022-09-09T08:43:28;30.80;65.10
678;DHT22;321;48.814;9.132;2022-09-09T08:47:01;31.50;62.20
678;DHT22;321;48.814;9.132;2022-09-09T08:49:24;32.50;60.60
678;DHT22;321;48.814;9.132;2022-09-09T08:51:57;33.40;57.20
678;DHT22;321;48.814;9.132;2022-09-09T08:54:24;33.40;57.70
678;DHT22;321;48.814;9.132;2022-09-09T08:56:51;32.90;57.40
678;DHT22;321;48.814;9.132;2022-09-09T08:59:18;32.50;57.40
678;DHT22;321;48.814;9.132;2022-09-09T09:04:48;33.30;57.30
678;DHT22;321;48.814;9.132;2022-09-09T09:10:05;33.60;55.00
678;DHT22;321;48.814;9.132;2022-09-09T09:12:42;33.70;55.00
678;DHT22;321;48.814;9.132;2022-09-09T09:15:18;32.90;55.10
678;DHT22;321;48.814;9.132;2022-09-09T09:17:45;32.20;55.40
678;DHT22;321;48.814;9.132;2022-09-09T09:20:20;30.00;64.40
678;DHT22;321;48.814;9.132;2022-09-09T09:22:51;29.80;65.40
678;DHT22;321;48.814;9.132;2022-09-09T09:25:23;27.60;68.80
678;DHT22;321;48.814;9.132;2022-09-09T09:28:10;27.70;70.80
678;DHT22;321;48.814;9.132;2022-09-09T09:30:42;27.00;70.30
678;DHT22;321;48.814;9.132;2022-09-09T09:35:49;26.40;78.60
678;DHT22;321;48.814;9.132;2022-09-09T09:38:18;25.90;76.50
678;DHT22;321;48.814;9.132;2022-09-09T09:40:49;25.10;78.50
678;DHT22;321;48.814;9.132;2022-09-09T09:43:21;25.20;84.00
678;DHT22;321;48.814;9.132;2022-09-09T09:45:49;26.10;79.40
678;DHT22;321;48.814;9.132;2022-09-09T09:48:14;27.00;74.60
678;DHT22;321;48.814;9.132;2022-09-09T09:50:58;28.10;71.80
678;DHT22;321;48.814;9.132;2022-09-09T09:53:32;29.60;66.30
678;DHT22;321;48.814;9.132;2022-09-09T09:56:09;31.60;58.10
678;DHT22;321;48.814;9.132;2022-09-09T09:58:56;32.00;58.40
678;DHT22;321;48.814;9.132;2022-09-09T10:01:22;32.50;54.80
678;DHT22;321;48.814;9.132;2022-09-09T10:04:00;33.00;55.20
678;DHT22;321;48.814;9.132;2022-09-09T10:06:35;34.00;53.90
678;DHT22;321;48.814;9.132;2022-09-09T10:09:03;35.30;52.10
678;DHT22;321;48.814;9.132;2022-09-09T10:17:44;35.40;49.70
678;DHT22;321;48.814;9.132;2022-09-09T10:34:00;31.30;55.40
678;DHT22;321;48.814;9.132;2022-09-09T10:36:31;31.30;56.90
678;DHT22;321;48.814;9.132;2022-09-09T10:41:56;31.40;55.80
678;DHT22;321;48.814;9.132;2022-09-09T10:52:41;30.40;54.70
678;DHT22;321;48.814;9.132;2022-09-09T10:55:20;30.40;55.00
678;DHT22;321;48.814;9.132;2022-09-09T10:57:52;30.30;54.90
678;DHT22;321;48.814;9.132;2022-09-09T11:00:22;29.10;56.20
678;DHT22;321;48.814;9.132;2022-09-09T11:02:52;29.10;56.60
678;DHT22;321;48.814;9.132;2022-09-09T11:05:20;28.70;58.00
678;DHT22;321;48.814;9.132;2022-09-09T11:10:41;27.40;62.60
678;DHT22;321;48.814;9.132;2022-09-09T11:13:17;26.50;66.00
678;DHT22;321;48.814;9.132;2022-09-09T11:15:46;25.40;70.60
678;DHT22;321;48.814;9.132;2022-09-09T11:18:19;24.90;72.70
678;DHT22;321;48.814;9.132;2022-09-09T11:20:51;24.90;73.40
678;DHT22;321;48.814;9.132;2022-09-09T11:23:27;24.50;78.50
678;DHT22;321;48.814;9.132;2022-09-09T11:26:00;23.90;78.20
678;DHT22;321;48.814;9.132;2022-09-09T11:31:38;23.30;81.20
678;DHT22;321;48.814;9.132;2022-09-09T11:34:27;23.20;81.60
678;DHT22;321;48.814;9.132;2022-09-09T11:37:38;22.90;80.70
678;DHT22;321;48.814;9.132;2022-09-09T11:40:20;23.10;81.70
678;DHT22;321;48.814;9.132;2022-09-09T11:42:47;23.30;81.90
678;DHT22;321;48.814;9.132;2022-09-09T11:45:24;23.60;80.80
678;DHT22;321;48.814;9.132;2022-09-09T11:47:52;23.70;80.60
678;DHT22;321;48.814;9.132;2022-09-09T11:52:46;23.90;79.80
678;DHT22;321;48.814;9.132;2022-09-09T11:55:31;23.70;79.90
678;DHT22;321;48.814;9.132;2022-09-09T12:00:42;23.90;79.30
678;DHT22;321;48.814;9.132;2022-09-09T12:05:54;23.60;77.30
678;DHT22;321;48.814;9.132;2022-09-09T12:08:26;23.70;79.20
678;DHT22;321;48.814;9.132;2022-09-09T12:10:55;23.90;77.90
678;DHT22;321;48.814;9.132;2022-09-09T12:13:23;24.10;77.50
678;DHT22;321;48.814;9.132;2022-09-09T12:15:52;24.20;77.70
678;DHT22;321;48.814;9.132;2022-09-09T12:18:33;24.40;77.80
678;DHT22;321;48.814;9.132;2022-09-09T12:23:36;24.70;75.90
678;DHT22;321;48.814;9.132;2022-09-09T12:26:47;24.60;76.20
678;DHT22;321;48.814;9.132;2022-09-09T12:34:17;24.20;73.40
678;DHT22;321;48.814;9.132;2022-09-09T12:36:44;24.00;72.50
678;DHT22;321;48.814;9.132;2022-09-09T12:39:29;24.00;73.20
678;DHT22;321;48.814;9.132;2022-09-09T12:41:57;23.90;75.30
678;DHT22;321;48.814;9.132;2022-09-09T12:44:25;23.80;74.70
678;DHT22;321;48.814;9.132;2022-09-09T12:46:51;23.90;74.20
678;DHT22;321;48.814;9.132;2022-09-09T12:49:34;24.10;76.40
678;DHT22;321;48.814;9.132;2022-09-09T12:52:04;24.10;73.30
678;DHT22;321;48.814;9.132;2022-09-09T12:54:31;24.00;74.50
678;DHT22;321;48.814;9.132;2022-09-09T12:56:57;24.10;73.80
678;DHT22;321;48.814;9.132;2022-09-09T12:59:26;23.90;73.90
678;DHT22;321;48.814;9.132;2022-09-09T13:01:56;23.80;75.30
678;DHT22;321;48.814;9.132;2022-09-09T13:04:22;23.80;75.90
678;DHT22;321;48.814;9.132;2022-09-09T13:06:47;23.80;75.10
678;DHT22;321;48.814;9.132;2022-09-09T13:09:14;23.80;76.00
678;DHT22;321;48.814;9.132;2022-09-09T13:11:42;23.70;76.40
678;DHT22;321;48.814;9.132;2022-09-09T13:14:18;23.80;76.50
678;DHT22;321;48.814;9.132;2022-09-09T13:16:54;23.90;76.40
678;DHT22;321;48.814;9.132;2022-09-09T13:19:21;23.70;75.30
678;DHT22;321;48.814;9.132;2022-09-09T13:21:47;24.00;95.90
678;DHT22;321;48.814;9.132;2022-09-09T13:26:57;24.00;74.80
678;DHT22;321;48.814;9.132;2022-09-09T13:29:24;24.20;75.50
678;DHT22;321;48.814;9.132;2022-09-09T13:31:53;24.30;91.50
678;DHT22;321;48.814;9.132;2022-09-09T13:34:31;24.40;74.90
678;DHT22;321;48.814;9.132;2022-09-09T13:37:00;24.40;73.50
678;DHT22;321;48.814;9.132;2022-09-09T13:39:33;24.20;74.00
678;DHT22;321;48.814;9.132;2022-09-09T13:41:59;24.20;74.80
678;DHT22;321;48.814;9.132;2022-09-09T13:44:30;24.10;75.20
678;DHT22;321;48.814;9.132;2022-09-09T13:49:30;24.00;75.70
678;DHT22;321;48.814;9.132;2022-09-09T13:52:11;24.00;77.20
678;DHT22;321;48.814;9.132;2022-09-09T13:54:39;23.80;75.10
678;DHT22;321;48.814;9.132;2022-09-09T13:57:05;23.70;75.70
678;DHT22;321;48.814;9.132;2022-09-09T13:59:31;23.90;74.70
678;DHT22;321;48.814;9.132;2022-09-09T14:01:57;24.10;75.20
678;DHT22;321;48.814;9.132;2022-09-09T14:04:23;24.40;71.40
678;DHT22;321;48.814;9.132;2022-09-09T14:06:49;24.40;71.40
678;DHT22;321;48.814;9.132;2022-09-09T14:09:16;24.40;70.70
678;DHT22;321;48.814;9.132;2022-09-09T14:11:44;24.20;69.70
678;DHT22;321;48.814;9.132;2022-09-09T14:14:11;24.10;69.80
678;DHT22;321;48.814;9.132;2022-09-09T14:16:36;24.10;72.80
678;DHT22;321;48.814;9.132;2022-09-09T14:19:03;24.10;74.80
678;DHT22;321;48.814;9.132;2022-09-09T14:21:29;23.90;72.40
678;DHT22;321;48.814;9.132;2022-09-09T14:23:54;23.80;71.30
678;DHT22;321;48.814;9.132;2022-09-09T14:26:24;23.80;72.60
678;DHT22;321;48.814;9.132;2022-09-09T14:28:49;23.70;71.90
678;DHT22;321;48.814;9.132;2022-09-09T14:31:16;23.50;69.80
678;DHT22;321;48.814;9.132;2022-09-09T14:33:46;23.40;70.10
678;DHT22;321;48.814;9.132;2022-09-09T14:36:11;23.20;70.50
678;DHT22;321;48.814;9.132;2022-09-09T14:38:38;23.20;70.70
678;DHT22;321;48.814;9.132;2022-09-09T14:41:06;23.00;70.50
678;DHT22;321;48.814;9.132;2022-09-09T14:43:32;22.80;72.00
678;DHT22;321;48.814;9.132;2022-09-09T14:46:07;22.70;72.40
678;DHT22;321;48.814;9.132;2022-09-09T14:48:34;22.70;71.30
678;DHT22;321;48.814;9.132;2022-09-09T14:51:16;22.80;73.70
678;DHT22;321;48.814;9.132;2022-09-09T14:53:42;22.90;72.20
678;DHT22;321;48.814;9.132;2022-09-09T14:58:36;23.00;71.70
678;DHT22;321;48.814;9.132;2022-09-09T15:01:09;22.80;69.10
678;DHT22;321;48.814;9.132;2022-09-09T15:03:36;22.80;70.70
678;DHT22;321;48.814;9.132;2022-09-09T15:06:08;22.80;71.90
678;DHT22;321;48.814;9.132;2022-09-09T15:08:35;22.90;71.80
678;DHT22;321;48.814;9.132;2022-09-09T15:11:02;23.00;73.50
678;DHT22;321;48.814;9.132;2022-09-09T15:13:28;23.30;91.30
678;DHT22;321;48.814;9.132;2022-09-09T15:15:54;23.10;86.40
678;DHT22;321;48.814;9.132;2022-09-09T15:18:20;23.50;70.60
678;DHT22;321;48.814;9.132;2022-09-09T15:20:46;22.80;89.40
678;DHT22;321;48.814;9.132;2022-09-09T15:25:49;22.80;70.90
678;DHT22;321;48.814;9.132;2022-09-09T15:28:15;22.90;73.10
678;DHT22;321;48.814;9.132;2022-09-09T15:30:41;22.90;72.10
678;DHT22;321;48.814;9.132;2022-09-09T15:33:10;22.90;71.60
678;DHT22;321;48.814;9.132;2022-09-09T15:38:04;23.00;77.40
678;DHT22;321;48.814;9.132;2022-09-09T15:40:30;23.70;76.20
678;DHT22;321;48.814;9.132;2022-09-09T15:42:58;23.00;97.40
678;DHT22;321;48.814;9.132;2022-09-09T15:45:23;23.10;74.50
678;DHT22;321;48.814;9.132;2022-09-09T15:47:49;23.00;74.10
678;DHT22;321;48.814;9.132;2022-09-09T15:50:14;22.90;76.20
678;DHT22;321;48.814;9.132;2022-09-09T15:52:40;22.90;76.00
678;DHT22;321;48.814;9.132;2022-09-09T15:55:06;22.70;74.20
678;DHT22;321;48.814;9.132;2022-09-09T15:57:33;22.70;78.40
678;DHT22;321;48.814;9.132;2022-09-09T16:00:00;22.70;76.70
678;DHT22;321;48.814;9.132;2022-09-09T16:02:26;22.70;77.80
678;DHT22;321;48.814;9.132;2022-09-09T16:04:52;22.60;76.30
678;DHT22;321;48.814;9.132;2022-09-09T16:07:17;22.60;77.10
678;DHT22;321;48.814;9.132;2022-09-09T16:09:43;22.40;75.90
678;DHT22;321;48.814;9.132;2022-09-09T16:12:09;22.40;77.40
678;DHT22;321;48.814;9.132;2022-09-09T16:14:35;22.30;77.20
678;DHT22;321;48.814;9.132;2022-09-09T16:17:02;22.20;75.90
678;DHT22;321;48.814;9.132;2022-09-09T16:19:28;22.20;76.40
678;DHT22;321;48.814;9.132;2022-09-09T16:21:53;22.10;75.80
678;DHT22;321;48.814;9.132;2022-09-09T16:24:19;22.10;75.80
678;DHT22;321;48.814;9.132;2022-09-09T16:26:47;22.00;76.60
678;DHT22;321;48.814;9.132;2022-09-09T16:29:14;22.00;77.80
678;DHT22;321;48.814;9.132;2022-09-09T16:31:41;21.90;78.80
678;DHT22;321;48.814;9.132;2022-09-09T16:34:07;21.60;78.40
678;DHT22;321;48.814;9.132;2022-09-09T16:36:35;21.50;79.60
678;DHT22;321;48.814;9.132;2022-09-09T16:39:06;21.30;79.70
678;DHT22;321;48.814;9.132;2022-09-09T16:41:32;21.10;80.60
678;DHT22;321;48.814;9.132;2022-09-09T16:44:00;20.90;81.30
678;DHT22;321;48.814;9.132;2022-09-09T16:46:29;20.70;82.20
678;DHT22;321;48.814;9.132;2022-09-09T16:48:56;20.70;81.70
678;DHT22;321;48.814;9.132;2022-09-09T16:51:30;20.70;83.10
678;DHT22;321;48.814;9.132;2022-09-09T16:53:59;20.60;87.50
678;DHT22;321;48.814;9.132;2022-09-09T16:56:27;20.40;88.90
678;DHT22;321;48.814;9.132;2022-09-09T16:58:58;20.30;91.30
678;DHT22;321;48.814;9.132;2022-09-09T17:01:26;20.30;92.40
678;DHT22;321;48.814;9.132;2022-09-09T17:03:59;20.20;93.10
678;DHT22;321;48.814;9.132;2022-09-09T17:06:26;20.20;94.30
678;DHT22;321;48.814;9.132;2022-09-09T17:08:56;20.20;94.80
678;DHT22;321;48.814;9.132;2022-09-09T17:11:22;20.20;93.40
678;DHT22;321;48.814;9.132;2022-09-09T17:13:48;20.20;93.80
678;DHT22;321;48.814;9.132;2022-09-09T17:16:17;20.10;94.00
678;DHT22;321;48.814;9.132;2022-09-09T17:18:42;19.90;93.70
678;DHT22;321;48.814;9.132;2022-09-09T17:21:14;19.70;94.90
678;DHT22;321;48.814;9.132;2022-09-09T17:23:41;19.70;96.10
678;DHT22;321;48.814;9.132;2022-09-09T17:26:09;19.60;96.30
678;DHT22;321;48.814;9.132;2022-09-09T17:28:36;19.50;96.70
678;DHT22;321;48.814;9.132;2022-09-09T17:31:08;19.30;97.50
678;DHT22;321;48.814;9.132;2022-09-09T17:33:37;19.30;97.90
678;DHT22;321;48.814;9.132;2022-09-09T17:36:19;19.20;98.70
678;DHT22;321;48.814;9.132;2022-09-09T17:38:45;19.20;98.60
678;DHT22;321;48.814;9.132;2022-09-09T17:43:39;19.00;99.50
678;DHT22;321;48.814;9.132;2022-09-09T17:46:16;18.80;99.90
678;DHT22;321;48.814;9.132;2022-09-09T17:48:43;18.70;99.90
678;DHT22;321;48.814;9.132;2022-09-09T17:51:13;18.60;99.90
678;DHT22;321;48.814;9.132;2022-09-09T17:53:41;18.60;99.90
678;DHT22;321;48.814;9.132;2022-09-09T17:56:09;18.60;99.90
678;DHT22;321;48.814;9.132;2022-09-09T17:58:36;18.50;99.90
678;DHT22;321;48.814;9.132;2022-09-09T18:01:07;18.40;99.90
678;DHT22;321;48.814;9.132;2022-09-09T18:03:35;18.30;99.90
678;DHT22;321;48.814;9.132;2022-09-09T18:06:03;18.30;99.90
678;DHT22;321;48.814;9.132;2022-09-09T18:08:29;18.30;99.90
678;DHT22;321;48.814;9.132;2022-09-09T18:10:55;18.20;99.90
678;DHT22;321;48.814;9.132;2022-09-09T18:13:21;18.10;99.90
678;DHT22;321;48.814;9.132;2022-09-09T18:15:47;18.20;99.90
678;DHT22;321;48.814;9.132;2022-09-09T18:18:12;18.20;99.90
678;DHT22;321;48.814;9.132;2022-09-09T18:20:39;18.20;99.90
678;DHT22;321;48.814;9.132;2022-09-09T18:23:05;18.30;99.90
678;DHT22;321;48.814;9.132;2022-09-09T18:25:30;18.30;99.90
678;DHT22;321;48.814;9.132;2022-09-09T18:27:56;18.40;99.90
678;DHT22;321;48.814;9.132;2022-09-09T18:30:23;18.30;99.90
678;DHT22;321;48.814;9.132;2022-09-09T18:32:49;18.30;99.90
678;DHT22;321;48.814;9.132;2022-09-09T18:35:18;18.30;99.90
678;DHT22;321;48.814;9.132;2022-09-09T18:37:46;18.40;99.90
678;DHT22;321;48.814;9.132;2022-09-09T18:40:11;18.30;99.90
678;DHT22;321;48.814;9.132;2022-09-09T18:42:37;18.30;99.90
678;DHT22;321;48.814;9.132;2022-09-09T18:45:03;18.30;99.90